sensor_id;sensor_type;location;lat;lon;timestamp;P1;durP1;ratioP1;P2;durP2;ratioP2
54683;SDS011;40582;53.100;6.686;2022-12-11T00:00:00;58.22;;;31.58;;
54683;SDS011;40582;53.100;6.686;2022-12-11T00:02:27;67.70;;;33.65;;
54683;SDS011;40582;53.100;6.686;2022-12-11T00:04:53;59.25;;;31.65;;
54683;SDS011;40582;53.100;6.686;2022-12-11T00:07:19;61.67;;;31.15;;
54683;SDS011;40582;53.100;6.686;2022-12-11T00:09:44;67.78;;;32.55;;
54683;SDS011;40582;53.100;6.686;2022-12-11T00:12:10;61.78;;;31.88;;
54683;SDS011;40582;53.100;6.686;2022-12-11T00:14:36;66.07;;;32.55;;
54683;SDS011;40582;53.100;6.686;2022-12-11T00:17:01;62.38;;;32.13;;
54683;SDS011;40582;53.100;6.686;2022-12-11T00:19:27;62.00;;;32.65;;
54683;SDS011;40582;53.100;6.686;2022-12-11T00:21:53;56.35;;;29.10;;
54683;SDS011;40582;53.100;6.686;2022-12-11T00:24:19;57.90;;;28.83;;
54683;SDS011;40582;53.100;6.686;2022-12-11T00:26:44;58.53;;;29.50;;
54683;SDS011;40582;53.100;6.686;2022-12-11T00:29:10;56.92;;;29.25;;
54683;SDS011;40582;53.100;6.686;2022-12-11T00:31:39;63.15;;;30.60;;
54683;SDS011;40582;53.100;6.686;2022-12-11T00:34:06;67.68;;;30.95;;
54683;SDS011;40582;53.100;6.686;2022-12-11T00:36:32;59.92;;;30.35;;
54683;SDS011;40582;53.100;6.686;2022-12-11T00:38:58;59.15;;;30.83;;
54683;SDS011;40582;53.100;6.686;2022-12-11T00:41:25;62.88;;;31.05;;
54683;SDS011;40582;53.100;6.686;2022-12-11T00:43:51;64.03;;;30.95;;
54683;SDS011;40582;53.100;6.686;2022-12-11T00:46:16;66.22;;;31.33;;
54683;SDS011;40582;53.100;6.686;2022-12-11T00:48:42;68.72;;;32.78;;
54683;SDS011;40582;53.100;6.686;2022-12-11T00:51:09;67.57;;;32.03;;
54683;SDS011;40582;53.100;6.686;2022-12-11T00:53:34;70.20;;;31.33;;
54683;SDS011;40582;53.100;6.686;2022-12-11T00:56:01;64.38;;;31.35;;
54683;SDS011;40582;53.100;6.686;2022-12-11T00:58:34;61.63;;;30.38;;
54683;SDS011;40582;53.100;6.686;2022-12-11T01:01:10;65.47;;;30.30;;
54683;SDS011;40582;53.100;6.686;2022-12-11T01:03:38;58.85;;;28.45;;
54683;SDS011;40582;53.100;6.686;2022-12-11T01:06:04;62.30;;;28.92;;
54683;SDS011;40582;53.100;6.686;2022-12-11T01:08:30;60.40;;;29.40;;
54683;SDS011;40582;53.100;6.686;2022-12-11T01:11:03;64.88;;;30.05;;
54683;SDS011;40582;53.100;6.686;2022-12-11T01:13:31;68.68;;;31.73;;
54683;SDS011;40582;53.100;6.686;2022-12-11T01:15:57;69.28;;;30.08;;
54683;SDS011;40582;53.100;6.686;2022-12-11T01:18:23;67.43;;;29.83;;
54683;SDS011;40582;53.100;6.686;2022-12-11T01:20:49;63.25;;;29.02;;
54683;SDS011;40582;53.100;6.686;2022-12-11T01:23:15;68.47;;;31.13;;
54683;SDS011;40582;53.100;6.686;2022-12-11T01:25:41;67.53;;;31.10;;
54683;SDS011;40582;53.100;6.686;2022-12-11T01:28:07;69.22;;;30.63;;
54683;SDS011;40582;53.100;6.686;2022-12-11T01:30:33;61.15;;;29.27;;
54683;SDS011;40582;53.100;6.686;2022-12-11T01:32:59;67.65;;;30.85;;
54683;SDS011;40582;53.100;6.686;2022-12-11T01:35:25;72.22;;;29.45;;
54683;SDS011;40582;53.100;6.686;2022-12-11T01:37:51;65.45;;;30.15;;
54683;SDS011;40582;53.100;6.686;2022-12-11T01:40:18;73.55;;;30.80;;
54683;SDS011;40582;53.100;6.686;2022-12-11T01:42:44;72.80;;;31.20;;
54683;SDS011;40582;53.100;6.686;2022-12-11T01:48:07;68.22;;;31.05;;
54683;SDS011;40582;53.100;6.686;2022-12-11T01:50:38;73.85;;;31.25;;
54683;SDS011;40582;53.100;6.686;2022-12-11T01:53:08;75.28;;;31.70;;
54683;SDS011;40582;53.100;6.686;2022-12-11T01:55:37;81.13;;;31.73;;
54683;SDS011;40582;53.100;6.686;2022-12-11T01:58:03;72.03;;;32.17;;
54683;SDS011;40582;53.100;6.686;2022-12-11T02:00:30;76.10;;;31.17;;
54683;SDS011;40582;53.100;6.686;2022-12-11T02:02:56;68.90;;;30.98;;
54683;SDS011;40582;53.100;6.686;2022-12-11T02:05:22;73.88;;;32.63;;
54683;SDS011;40582;53.100;6.686;2022-12-11T02:07:51;76.13;;;32.00;;
54683;SDS011;40582;53.100;6.686;2022-12-11T02:10:22;76.45;;;32.08;;
54683;SDS011;40582;53.100;6.686;2022-12-11T02:18:41;86.50;;;33.70;;
54683;SDS011;40582;53.100;6.686;2022-12-11T02:21:22;92.57;;;35.65;;
54683;SDS011;40582;53.100;6.686;2022-12-11T02:23:59;85.65;;;33.80;;
54683;SDS011;40582;53.100;6.686;2022-12-11T02:29:20;81.20;;;33.33;;
54683;SDS011;40582;53.100;6.686;2022-12-11T02:32:10;89.93;;;34.58;;
54683;SDS011;40582;53.100;6.686;2022-12-11T02:34:41;84.07;;;33.17;;
54683;SDS011;40582;53.100;6.686;2022-12-11T02:37:15;86.60;;;34.58;;
54683;SDS011;40582;53.100;6.686;2022-12-11T02:39:45;90.60;;;33.78;;
54683;SDS011;40582;53.100;6.686;2022-12-11T02:42:13;86.80;;;34.20;;
54683;SDS011;40582;53.100;6.686;2022-12-11T02:44:40;90.38;;;34.55;;
54683;SDS011;40582;53.100;6.686;2022-12-11T02:47:07;89.00;;;34.28;;
54683;SDS011;40582;53.100;6.686;2022-12-11T02:49:35;87.75;;;35.72;;
54683;SDS011;40582;53.100;6.686;2022-12-11T02:52:04;85.45;;;33.95;;
54683;SDS011;40582;53.100;6.686;2022-12-11T02:54:32;82.95;;;32.92;;
54683;SDS011;40582;53.100;6.686;2022-12-11T02:59:35;84.38;;;33.47;;
54683;SDS011;40582;53.100;6.686;2022-12-11T03:02:02;75.63;;;32.05;;
54683;SDS011;40582;53.100;6.686;2022-12-11T03:04:28;79.18;;;30.88;;
54683;SDS011;40582;53.100;6.686;2022-12-11T03:06:55;73.03;;;29.60;;
54683;SDS011;40582;53.100;6.686;2022-12-11T03:09:26;78.18;;;30.55;;
54683;SDS011;40582;53.100;6.686;2022-12-11T03:11:52;71.10;;;30.00;;
54683;SDS011;40582;53.100;6.686;2022-12-11T03:14:18;84.40;;;31.08;;
54683;SDS011;40582;53.100;6.686;2022-12-11T03:16:47;76.13;;;31.27;;
54683;SDS011;40582;53.100;6.686;2022-12-11T03:22:42;78.00;;;30.15;;
54683;SDS011;40582;53.100;6.686;2022-12-11T03:25:16;86.45;;;33.28;;
54683;SDS011;40582;53.100;6.686;2022-12-11T03:27:49;81.40;;;31.60;;
54683;SDS011;40582;53.100;6.686;2022-12-11T03:30:24;76.13;;;29.83;;
54683;SDS011;40582;53.100;6.686;2022-12-11T03:32:57;78.25;;;30.88;;
54683;SDS011;40582;53.100;6.686;2022-12-11T03:35:32;77.43;;;30.45;;
54683;SDS011;40582;53.100;6.686;2022-12-11T03:38:04;80.22;;;32.15;;
54683;SDS011;40582;53.100;6.686;2022-12-11T03:40:42;73.65;;;30.23;;
54683;SDS011;40582;53.100;6.686;2022-12-11T03:43:12;76.90;;;31.63;;
54683;SDS011;40582;53.100;6.686;2022-12-11T03:45:40;91.57;;;32.15;;
54683;SDS011;40582;53.100;6.686;2022-12-11T03:48:07;80.72;;;30.45;;
54683;SDS011;40582;53.100;6.686;2022-12-11T03:50:34;86.30;;;32.40;;
54683;SDS011;40582;53.100;6.686;2022-12-11T03:53:00;79.80;;;31.40;;
54683;SDS011;40582;53.100;6.686;2022-12-11T03:55:28;74.40;;;29.85;;
54683;SDS011;40582;53.100;6.686;2022-12-11T03:57:56;87.57;;;33.05;;
54683;SDS011;40582;53.100;6.686;2022-12-11T04:00:22;84.00;;;30.80;;
54683;SDS011;40582;53.100;6.686;2022-12-11T04:02:48;80.82;;;30.33;;
54683;SDS011;40582;53.100;6.686;2022-12-11T04:05:34;80.82;;;31.25;;
54683;SDS011;40582;53.100;6.686;2022-12-11T04:08:00;78.88;;;30.30;;
54683;SDS011;40582;53.100;6.686;2022-12-11T04:10:26;71.70;;;30.05;;
54683;SDS011;40582;53.100;6.686;2022-12-11T04:12:51;81.32;;;30.30;;
54683;SDS011;40582;53.100;6.686;2022-12-11T04:15:17;77.07;;;30.55;;
54683;SDS011;40582;53.100;6.686;2022-12-11T04:17:43;73.53;;;28.60;;
54683;SDS011;40582;53.100;6.686;2022-12-11T04:20:27;73.30;;;29.65;;
54683;SDS011;40582;53.100;6.686;2022-12-11T04:23:13;77.65;;;29.50;;
54683;SDS011;40582;53.100;6.686;2022-12-11T04:26:18;74.97;;;30.00;;
54683;SDS011;40582;53.100;6.686;2022-12-11T04:28:46;88.22;;;32.17;;
54683;SDS011;40582;53.100;6.686;2022-12-11T04:31:13;86.40;;;32.28;;
54683;SDS011;40582;53.100;6.686;2022-12-11T04:33:44;81.00;;;31.38;;
54683;SDS011;40582;53.100;6.686;2022-12-11T04:36:10;80.32;;;32.20;;
54683;SDS011;40582;53.100;6.686;2022-12-11T04:38:36;87.10;;;33.08;;
54683;SDS011;40582;53.100;6.686;2022-12-11T04:41:04;77.18;;;32.08;;
54683;SDS011;40582;53.100;6.686;2022-12-11T04:43:32;84.43;;;32.15;;
54683;SDS011;40582;53.100;6.686;2022-12-11T04:46:01;83.90;;;32.25;;
54683;SDS011;40582;53.100;6.686;2022-12-11T04:48:32;90.53;;;32.15;;
54683;SDS011;40582;53.100;6.686;2022-12-11T04:50:58;82.47;;;31.98;;
54683;SDS011;40582;53.100;6.686;2022-12-11T04:53:24;79.78;;;32.88;;
54683;SDS011;40582;53.100;6.686;2022-12-11T04:55:50;77.97;;;32.75;;
54683;SDS011;40582;53.100;6.686;2022-12-11T04:58:15;82.60;;;32.10;;
54683;SDS011;40582;53.100;6.686;2022-12-11T05:00:41;86.13;;;33.53;;
54683;SDS011;40582;53.100;6.686;2022-12-11T05:03:07;92.22;;;33.47;;
54683;SDS011;40582;53.100;6.686;2022-12-11T05:05:33;88.80;;;32.33;;
54683;SDS011;40582;53.100;6.686;2022-12-11T05:07:59;91.47;;;33.55;;
54683;SDS011;40582;53.100;6.686;2022-12-11T05:10:24;89.32;;;34.35;;
54683;SDS011;40582;53.100;6.686;2022-12-11T05:12:50;85.05;;;31.60;;
54683;SDS011;40582;53.100;6.686;2022-12-11T05:15:16;90.13;;;32.83;;
54683;SDS011;40582;53.100;6.686;2022-12-11T05:17:41;93.30;;;33.00;;
54683;SDS011;40582;53.100;6.686;2022-12-11T05:20:07;86.57;;;32.38;;
54683;SDS011;40582;53.100;6.686;2022-12-11T05:22:34;84.05;;;32.80;;
54683;SDS011;40582;53.100;6.686;2022-12-11T05:25:00;82.85;;;33.03;;
54683;SDS011;40582;53.100;6.686;2022-12-11T05:27:26;86.72;;;34.30;;
54683;SDS011;40582;53.100;6.686;2022-12-11T05:29:51;95.57;;;33.55;;
54683;SDS011;40582;53.100;6.686;2022-12-11T05:32:17;87.28;;;34.22;;
54683;SDS011;40582;53.100;6.686;2022-12-11T05:34:43;94.20;;;33.63;;
54683;SDS011;40582;53.100;6.686;2022-12-11T05:37:08;89.15;;;33.40;;
54683;SDS011;40582;53.100;6.686;2022-12-11T05:39:34;95.53;;;34.45;;
54683;SDS011;40582;53.100;6.686;2022-12-11T05:42:01;95.97;;;34.50;;
54683;SDS011;40582;53.100;6.686;2022-12-11T05:44:26;91.82;;;32.58;;
54683;SDS011;40582;53.100;6.686;2022-12-11T05:46:52;93.13;;;32.85;;
54683;SDS011;40582;53.100;6.686;2022-12-11T05:49:18;83.55;;;32.92;;
54683;SDS011;40582;53.100;6.686;2022-12-11T05:51:44;84.13;;;33.40;;
54683;SDS011;40582;53.100;6.686;2022-12-11T05:54:10;97.10;;;34.25;;
54683;SDS011;40582;53.100;6.686;2022-12-11T05:56:37;80.55;;;33.00;;
54683;SDS011;40582;53.100;6.686;2022-12-11T05:59:03;82.80;;;32.55;;
54683;SDS011;40582;53.100;6.686;2022-12-11T06:01:31;81.20;;;32.95;;
54683;SDS011;40582;53.100;6.686;2022-12-11T06:03:59;93.03;;;31.88;;
54683;SDS011;40582;53.100;6.686;2022-12-11T06:06:25;95.43;;;34.63;;
54683;SDS011;40582;53.100;6.686;2022-12-11T06:08:52;76.60;;;30.92;;
54683;SDS011;40582;53.100;6.686;2022-12-11T06:11:19;77.28;;;30.73;;
54683;SDS011;40582;53.100;6.686;2022-12-11T06:13:45;77.10;;;32.30;;
54683;SDS011;40582;53.100;6.686;2022-12-11T06:16:11;82.93;;;33.15;;
54683;SDS011;40582;53.100;6.686;2022-12-11T06:18:38;83.82;;;31.65;;
54683;SDS011;40582;53.100;6.686;2022-12-11T06:21:15;85.63;;;33.75;;
54683;SDS011;40582;53.100;6.686;2022-12-11T06:23:43;84.18;;;33.75;;
54683;SDS011;40582;53.100;6.686;2022-12-11T06:26:10;89.55;;;32.90;;
54683;SDS011;40582;53.100;6.686;2022-12-11T06:28:36;86.82;;;33.65;;
54683;SDS011;40582;53.100;6.686;2022-12-11T06:31:02;78.57;;;32.03;;
54683;SDS011;40582;53.100;6.686;2022-12-11T06:33:28;79.20;;;32.00;;
54683;SDS011;40582;53.100;6.686;2022-12-11T06:35:54;77.32;;;30.15;;
54683;SDS011;40582;53.100;6.686;2022-12-11T06:38:21;74.68;;;30.55;;
54683;SDS011;40582;53.100;6.686;2022-12-11T06:40:53;83.72;;;32.88;;
54683;SDS011;40582;53.100;6.686;2022-12-11T06:43:22;74.20;;;31.20;;
54683;SDS011;40582;53.100;6.686;2022-12-11T06:45:48;75.43;;;29.98;;
54683;SDS011;40582;53.100;6.686;2022-12-11T06:48:14;79.85;;;31.25;;
54683;SDS011;40582;53.100;6.686;2022-12-11T06:50:39;78.35;;;30.95;;
54683;SDS011;40582;53.100;6.686;2022-12-11T06:53:05;89.07;;;31.80;;
54683;SDS011;40582;53.100;6.686;2022-12-11T06:55:33;89.65;;;33.28;;
54683;SDS011;40582;53.100;6.686;2022-12-11T06:58:00;89.82;;;32.10;;
54683;SDS011;40582;53.100;6.686;2022-12-11T07:00:25;84.63;;;32.40;;
54683;SDS011;40582;53.100;6.686;2022-12-11T07:02:51;82.00;;;32.05;;
54683;SDS011;40582;53.100;6.686;2022-12-11T07:05:17;82.57;;;31.77;;
54683;SDS011;40582;53.100;6.686;2022-12-11T07:07:42;80.75;;;31.95;;
54683;SDS011;40582;53.100;6.686;2022-12-11T07:10:08;77.63;;;30.13;;
54683;SDS011;40582;53.100;6.686;2022-12-11T07:12:35;75.55;;;31.65;;
54683;SDS011;40582;53.100;6.686;2022-12-11T07:15:01;83.45;;;31.00;;
54683;SDS011;40582;53.100;6.686;2022-12-11T07:17:28;76.95;;;30.38;;
54683;SDS011;40582;53.100;6.686;2022-12-11T07:19:54;81.93;;;31.05;;
54683;SDS011;40582;53.100;6.686;2022-12-11T07:22:20;82.90;;;31.13;;
54683;SDS011;40582;53.100;6.686;2022-12-11T07:24:46;82.93;;;31.70;;
54683;SDS011;40582;53.100;6.686;2022-12-11T07:27:11;83.55;;;31.63;;
54683;SDS011;40582;53.100;6.686;2022-12-11T07:29:37;85.50;;;32.10;;
54683;SDS011;40582;53.100;6.686;2022-12-11T07:32:03;86.50;;;32.78;;
54683;SDS011;40582;53.100;6.686;2022-12-11T07:34:29;81.97;;;31.92;;
54683;SDS011;40582;53.100;6.686;2022-12-11T07:36:54;81.82;;;30.95;;
54683;SDS011;40582;53.100;6.686;2022-12-11T07:39:20;79.05;;;31.27;;
54683;SDS011;40582;53.100;6.686;2022-12-11T07:41:46;78.90;;;30.38;;
54683;SDS011;40582;53.100;6.686;2022-12-11T07:44:11;96.78;;;33.15;;
54683;SDS011;40582;53.100;6.686;2022-12-11T07:46:37;95.68;;;35.15;;
54683;SDS011;40582;53.100;6.686;2022-12-11T07:49:04;88.38;;;34.40;;
54683;SDS011;40582;53.100;6.686;2022-12-11T07:51:31;98.60;;;36.47;;
54683;SDS011;40582;53.100;6.686;2022-12-11T07:54:07;94.55;;;34.75;;
54683;SDS011;40582;53.100;6.686;2022-12-11T07:56:37;94.20;;;34.95;;
54683;SDS011;40582;53.100;6.686;2022-12-11T07:59:03;96.97;;;40.05;;
54683;SDS011;40582;53.100;6.686;2022-12-11T08:01:30;100.57;;;44.03;;
54683;SDS011;40582;53.100;6.686;2022-12-11T08:03:59;112.28;;;43.50;;
54683;SDS011;40582;53.100;6.686;2022-12-11T08:06:26;108.15;;;38.20;;
54683;SDS011;40582;53.100;6.686;2022-12-11T08:08:55;96.07;;;37.92;;
54683;SDS011;40582;53.100;6.686;2022-12-11T08:11:22;91.30;;;34.60;;
54683;SDS011;40582;53.100;6.686;2022-12-11T08:13:48;94.50;;;37.28;;
54683;SDS011;40582;53.100;6.686;2022-12-11T08:16:15;94.15;;;35.60;;
54683;SDS011;40582;53.100;6.686;2022-12-11T08:18:42;86.45;;;33.03;;
54683;SDS011;40582;53.100;6.686;2022-12-11T08:21:09;90.13;;;33.63;;
54683;SDS011;40582;53.100;6.686;2022-12-11T08:23:40;86.90;;;33.30;;
54683;SDS011;40582;53.100;6.686;2022-12-11T08:26:07;92.90;;;33.45;;
54683;SDS011;40582;53.100;6.686;2022-12-11T08:28:35;91.38;;;33.65;;
54683;SDS011;40582;53.100;6.686;2022-12-11T08:31:04;87.60;;;33.10;;
54683;SDS011;40582;53.100;6.686;2022-12-11T08:33:31;86.20;;;33.55;;
54683;SDS011;40582;53.100;6.686;2022-12-11T08:35:57;94.82;;;32.85;;
54683;SDS011;40582;53.100;6.686;2022-12-11T08:38:27;86.13;;;32.63;;
54683;SDS011;40582;53.100;6.686;2022-12-11T08:40:53;94.18;;;34.53;;
54683;SDS011;40582;53.100;6.686;2022-12-11T08:43:18;87.38;;;32.83;;
54683;SDS011;40582;53.100;6.686;2022-12-11T08:45:45;87.82;;;32.70;;
54683;SDS011;40582;53.100;6.686;2022-12-11T08:48:10;83.35;;;32.15;;
54683;SDS011;40582;53.100;6.686;2022-12-11T08:50:36;82.60;;;33.20;;
54683;SDS011;40582;53.100;6.686;2022-12-11T08:53:02;82.72;;;31.80;;
54683;SDS011;40582;53.100;6.686;2022-12-11T08:55:28;88.60;;;32.40;;
54683;SDS011;40582;53.100;6.686;2022-12-11T08:57:53;90.93;;;33.45;;
54683;SDS011;40582;53.100;6.686;2022-12-11T09:00:19;88.32;;;32.45;;
54683;SDS011;40582;53.100;6.686;2022-12-11T09:02:46;90.35;;;34.58;;
54683;SDS011;40582;53.100;6.686;2022-12-11T09:05:12;96.05;;;34.38;;
54683;SDS011;40582;53.100;6.686;2022-12-11T09:07:37;83.30;;;33.72;;
54683;SDS011;40582;53.100;6.686;2022-12-11T09:10:04;86.30;;;32.22;;
54683;SDS011;40582;53.100;6.686;2022-12-11T09:12:31;92.28;;;35.55;;
54683;SDS011;40582;53.100;6.686;2022-12-11T09:14:58;85.55;;;33.25;;
54683;SDS011;40582;53.100;6.686;2022-12-11T09:17:24;84.53;;;33.28;;
54683;SDS011;40582;53.100;6.686;2022-12-11T09:19:50;89.35;;;33.63;;
54683;SDS011;40582;53.100;6.686;2022-12-11T09:22:15;94.55;;;33.40;;
54683;SDS011;40582;53.100;6.686;2022-12-11T09:24:41;84.70;;;33.60;;
54683;SDS011;40582;53.100;6.686;2022-12-11T09:27:07;91.50;;;33.70;;
54683;SDS011;40582;53.100;6.686;2022-12-11T09:29:32;84.40;;;33.75;;
54683;SDS011;40582;53.100;6.686;2022-12-11T09:31:58;87.88;;;34.80;;
54683;SDS011;40582;53.100;6.686;2022-12-11T09:34:24;83.65;;;33.50;;
54683;SDS011;40582;53.100;6.686;2022-12-11T09:36:49;96.75;;;36.97;;
54683;SDS011;40582;53.100;6.686;2022-12-11T09:39:15;111.25;;;37.88;;
54683;SDS011;40582;53.100;6.686;2022-12-11T09:44:50;95.15;;;36.78;;
54683;SDS011;40582;53.100;6.686;2022-12-11T09:52:13;89.78;;;37.85;;
54683;SDS011;40582;53.100;6.686;2022-12-11T09:54:50;88.22;;;36.92;;
54683;SDS011;40582;53.100;6.686;2022-12-11T10:02:21;86.50;;;35.45;;
54683;SDS011;40582;53.100;6.686;2022-12-11T10:04:58;87.63;;;34.67;;
54683;SDS011;40582;53.100;6.686;2022-12-11T10:07:39;85.18;;;34.60;;
54683;SDS011;40582;53.100;6.686;2022-12-11T10:17:43;87.18;;;34.13;;
54683;SDS011;40582;53.100;6.686;2022-12-11T10:20:23;87.28;;;34.75;;
54683;SDS011;40582;53.100;6.686;2022-12-11T10:23:01;89.97;;;36.67;;
54683;SDS011;40582;53.100;6.686;2022-12-11T10:25:31;86.75;;;34.90;;
54683;SDS011;40582;53.100;6.686;2022-12-11T10:28:13;81.82;;;33.70;;
54683;SDS011;40582;53.100;6.686;2022-12-11T10:33:19;78.65;;;35.08;;
54683;SDS011;40582;53.100;6.686;2022-12-11T10:35:49;91.55;;;34.85;;
54683;SDS011;40582;53.100;6.686;2022-12-11T10:40:54;81.28;;;33.20;;
54683;SDS011;40582;53.100;6.686;2022-12-11T10:46:02;80.55;;;34.20;;
54683;SDS011;40582;53.100;6.686;2022-12-11T10:48:30;74.55;;;32.15;;
54683;SDS011;40582;53.100;6.686;2022-12-11T10:50:57;79.97;;;33.60;;
54683;SDS011;40582;53.100;6.686;2022-12-11T10:53:25;77.50;;;32.65;;
54683;SDS011;40582;53.100;6.686;2022-12-11T10:55:52;85.13;;;33.83;;
54683;SDS011;40582;53.100;6.686;2022-12-11T10:58:19;77.68;;;32.35;;
54683;SDS011;40582;53.100;6.686;2022-12-11T11:03:51;84.32;;;34.00;;
54683;SDS011;40582;53.100;6.686;2022-12-11T11:06:27;79.70;;;33.05;;
54683;SDS011;40582;53.100;6.686;2022-12-11T11:08:54;81.68;;;32.28;;
54683;SDS011;40582;53.100;6.686;2022-12-11T11:16:33;79.10;;;33.13;;
54683;SDS011;40582;53.100;6.686;2022-12-11T11:19:04;79.53;;;34.90;;
54683;SDS011;40582;53.100;6.686;2022-12-11T11:21:30;85.13;;;34.97;;
54683;SDS011;40582;53.100;6.686;2022-12-11T11:23:58;86.07;;;34.83;;
54683;SDS011;40582;53.100;6.686;2022-12-11T11:26:24;80.47;;;33.55;;
54683;SDS011;40582;53.100;6.686;2022-12-11T11:28:56;83.60;;;33.95;;
54683;SDS011;40582;53.100;6.686;2022-12-11T11:31:30;75.93;;;33.92;;
54683;SDS011;40582;53.100;6.686;2022-12-11T11:34:02;79.38;;;32.85;;
54683;SDS011;40582;53.100;6.686;2022-12-11T11:36:32;81.82;;;32.80;;
54683;SDS011;40582;53.100;6.686;2022-12-11T11:41:51;83.20;;;33.15;;
54683;SDS011;40582;53.100;6.686;2022-12-11T11:44:39;76.35;;;34.22;;
54683;SDS011;40582;53.100;6.686;2022-12-11T11:47:19;81.53;;;34.83;;
54683;SDS011;40582;53.100;6.686;2022-12-11T11:49:59;79.63;;;34.63;;
54683;SDS011;40582;53.100;6.686;2022-12-11T11:52:40;75.93;;;33.20;;
54683;SDS011;40582;53.100;6.686;2022-12-11T11:57:54;78.90;;;33.85;;
54683;SDS011;40582;53.100;6.686;2022-12-11T12:00:26;79.45;;;34.60;;
54683;SDS011;40582;53.100;6.686;2022-12-11T12:03:14;84.97;;;35.40;;
54683;SDS011;40582;53.100;6.686;2022-12-11T12:11:16;87.75;;;36.83;;
54683;SDS011;40582;53.100;6.686;2022-12-11T12:21:46;77.55;;;34.88;;
54683;SDS011;40582;53.100;6.686;2022-12-11T12:29:53;83.30;;;33.80;;
54683;SDS011;40582;53.100;6.686;2022-12-11T12:32:31;84.25;;;35.85;;
54683;SDS011;40582;53.100;6.686;2022-12-11T12:52:04;87.85;;;38.88;;
54683;SDS011;40582;53.100;6.686;2022-12-11T12:54:35;89.30;;;39.45;;
54683;SDS011;40582;53.100;6.686;2022-12-11T12:57:02;124.75;;;49.55;;
54683;SDS011;40582;53.100;6.686;2022-12-11T12:59:29;86.95;;;37.47;;
54683;SDS011;40582;53.100;6.686;2022-12-11T13:02:01;90.88;;;37.72;;
54683;SDS011;40582;53.100;6.686;2022-12-11T13:06:58;78.68;;;32.53;;
54683;SDS011;40582;53.100;6.686;2022-12-11T13:09:54;82.47;;;36.28;;
54683;SDS011;40582;53.100;6.686;2022-12-11T13:12:41;93.13;;;35.50;;
54683;SDS011;40582;53.100;6.686;2022-12-11T13:15:22;93.25;;;37.80;;
54683;SDS011;40582;53.100;6.686;2022-12-11T13:17:48;93.28;;;39.20;;
54683;SDS011;40582;53.100;6.686;2022-12-11T13:20:15;92.57;;;38.75;;
54683;SDS011;40582;53.100;6.686;2022-12-11T13:22:51;101.20;;;41.22;;
54683;SDS011;40582;53.100;6.686;2022-12-11T13:25:47;93.28;;;37.92;;
54683;SDS011;40582;53.100;6.686;2022-12-11T13:28:19;88.68;;;35.20;;
54683;SDS011;40582;53.100;6.686;2022-12-11T13:30:55;94.63;;;37.17;;
54683;SDS011;40582;53.100;6.686;2022-12-11T13:33:25;85.38;;;35.72;;
54683;SDS011;40582;53.100;6.686;2022-12-11T13:38:34;88.65;;;35.88;;
54683;SDS011;40582;53.100;6.686;2022-12-11T13:41:00;90.22;;;36.60;;
54683;SDS011;40582;53.100;6.686;2022-12-11T13:43:33;93.63;;;37.15;;
54683;SDS011;40582;53.100;6.686;2022-12-11T13:45:59;86.60;;;35.95;;
54683;SDS011;40582;53.100;6.686;2022-12-11T13:48:29;84.55;;;36.10;;
54683;SDS011;40582;53.100;6.686;2022-12-11T13:50:59;88.43;;;35.90;;
54683;SDS011;40582;53.100;6.686;2022-12-11T13:53:25;89.20;;;35.83;;
54683;SDS011;40582;53.100;6.686;2022-12-11T13:55:55;84.05;;;35.67;;
54683;SDS011;40582;53.100;6.686;2022-12-11T13:58:22;96.47;;;38.10;;
54683;SDS011;40582;53.100;6.686;2022-12-11T14:01:07;96.78;;;37.35;;
54683;SDS011;40582;53.100;6.686;2022-12-11T14:03:47;92.63;;;37.40;;
54683;SDS011;40582;53.100;6.686;2022-12-11T14:06:18;87.72;;;37.00;;
54683;SDS011;40582;53.100;6.686;2022-12-11T14:08:44;89.57;;;36.88;;
54683;SDS011;40582;53.100;6.686;2022-12-11T14:11:32;93.60;;;38.22;;
54683;SDS011;40582;53.100;6.686;2022-12-11T14:14:02;87.47;;;37.60;;
54683;SDS011;40582;53.100;6.686;2022-12-11T14:16:30;85.13;;;37.45;;
54683;SDS011;40582;53.100;6.686;2022-12-11T14:18:59;87.80;;;37.42;;
54683;SDS011;40582;53.100;6.686;2022-12-11T14:21:28;96.28;;;37.17;;
54683;SDS011;40582;53.100;6.686;2022-12-11T14:23:55;97.40;;;39.25;;
54683;SDS011;40582;53.100;6.686;2022-12-11T14:26:26;89.13;;;40.45;;
54683;SDS011;40582;53.100;6.686;2022-12-11T14:28:53;102.00;;;39.03;;
54683;SDS011;40582;53.100;6.686;2022-12-11T14:31:30;92.55;;;38.92;;
54683;SDS011;40582;53.100;6.686;2022-12-11T14:34:00;97.55;;;40.08;;
54683;SDS011;40582;53.100;6.686;2022-12-11T14:36:30;85.90;;;39.35;;
54683;SDS011;40582;53.100;6.686;2022-12-11T14:39:03;98.68;;;39.97;;
54683;SDS011;40582;53.100;6.686;2022-12-11T14:41:41;100.10;;;41.28;;
54683;SDS011;40582;53.100;6.686;2022-12-11T14:44:28;92.80;;;39.42;;
54683;SDS011;40582;53.100;6.686;2022-12-11T14:46:59;99.50;;;40.88;;
54683;SDS011;40582;53.100;6.686;2022-12-11T14:49:35;93.38;;;38.70;;
54683;SDS011;40582;53.100;6.686;2022-12-11T14:52:28;91.63;;;40.03;;
54683;SDS011;40582;53.100;6.686;2022-12-11T14:55:02;102.93;;;39.67;;
54683;SDS011;40582;53.100;6.686;2022-12-11T14:59:59;101.15;;;42.22;;
54683;SDS011;40582;53.100;6.686;2022-12-11T15:02:29;95.13;;;39.65;;
54683;SDS011;40582;53.100;6.686;2022-12-11T15:05:02;99.03;;;41.05;;
54683;SDS011;40582;53.100;6.686;2022-12-11T15:07:53;101.00;;;41.28;;
54683;SDS011;40582;53.100;6.686;2022-12-11T15:10:38;106.35;;;41.45;;
54683;SDS011;40582;53.100;6.686;2022-12-11T15:13:07;93.45;;;39.83;;
54683;SDS011;40582;53.100;6.686;2022-12-11T15:15:43;100.75;;;41.08;;
54683;SDS011;40582;53.100;6.686;2022-12-11T15:18:20;92.25;;;39.45;;
54683;SDS011;40582;53.100;6.686;2022-12-11T15:20:52;96.30;;;40.33;;
54683;SDS011;40582;53.100;6.686;2022-12-11T15:23:20;96.00;;;41.25;;
54683;SDS011;40582;53.100;6.686;2022-12-11T15:25:50;102.20;;;43.15;;
54683;SDS011;40582;53.100;6.686;2022-12-11T15:28:24;100.68;;;41.10;;
54683;SDS011;40582;53.100;6.686;2022-12-11T15:30:54;93.50;;;42.00;;
54683;SDS011;40582;53.100;6.686;2022-12-11T15:33:22;98.97;;;41.03;;
54683;SDS011;40582;53.100;6.686;2022-12-11T15:35:54;98.82;;;41.90;;
54683;SDS011;40582;53.100;6.686;2022-12-11T15:38:36;92.22;;;39.88;;
54683;SDS011;40582;53.100;6.686;2022-12-11T15:41:05;93.95;;;42.78;;
54683;SDS011;40582;53.100;6.686;2022-12-11T15:43:39;102.78;;;41.70;;
54683;SDS011;40582;53.100;6.686;2022-12-11T15:46:06;95.00;;;42.13;;
54683;SDS011;40582;53.100;6.686;2022-12-11T15:48:32;101.10;;;42.25;;
54683;SDS011;40582;53.100;6.686;2022-12-11T15:50:58;95.43;;;40.25;;
54683;SDS011;40582;53.100;6.686;2022-12-11T15:53:23;99.32;;;41.92;;
54683;SDS011;40582;53.100;6.686;2022-12-11T15:55:49;93.65;;;40.85;;
54683;SDS011;40582;53.100;6.686;2022-12-11T15:58:19;90.75;;;40.30;;
54683;SDS011;40582;53.100;6.686;2022-12-11T16:00:47;88.47;;;39.63;;
54683;SDS011;40582;53.100;6.686;2022-12-11T16:03:14;93.78;;;40.97;;
54683;SDS011;40582;53.100;6.686;2022-12-11T16:05:42;83.82;;;40.83;;
54683;SDS011;40582;53.100;6.686;2022-12-11T16:08:11;76.93;;;39.00;;
54683;SDS011;40582;53.100;6.686;2022-12-11T16:10:39;77.10;;;37.70;;
54683;SDS011;40582;53.100;6.686;2022-12-11T16:13:07;77.68;;;37.88;;
54683;SDS011;40582;53.100;6.686;2022-12-11T16:15:33;75.60;;;35.83;;